KCRX/CRX METAR and TAF weather

Enter ICAO airport designator
Station Type Date Time Source
KCRX METAR 2019/12/12 11:55 UTC NOAA

KCRX 121155Z AUTO 00000KT 10SM CLR M03/M04 A3045 RMK AO2


Station Type Date Time Source
KCRX Decoded METAR 2019/12/12 11:55 UTC NOAA

Station name not available
Dec 12, 2019 - 06:55 AM EST / 2019.12.12 1155 UTC
Wind: Calm:0
Visibility: 10 mile(s):0
Sky conditions: clear
Temperature: 26 F (-3 C)
Dew Point: 24 F (-4 C)
Relative Humidity: 92%
Pressure (altimeter): 30.45 in. Hg (1031 hPa)
ob: KCRX 121155Z AUTO 00000KT 10SM CLR M03/M04 A3045 RMK AO2
cycle: 12

Station Type Date Time Source
KCRX TAF UTC NOAA

Error!

Example: see airport list